Time;durP1;ratioP1;P1;durP2;ratioP2;P2;SDS_P1;SDS_P2;PMS_P1;PMS_P2;Temp;Humidity;BMP_temperature;BMP_pressure;BME280_temperature;BME280_humidity;BME280_pressure;Samples;Min_cycle;Max_cycle;Signal;HPM_P1;HPM_P2
2023/05/08 00:08:18;;;;;;;5.88;1.70;;;;;;;23.28;45.37;100961.41;20816294;28;20454;-71
2023/05/08 00:18:20;;;;;;;21.63;3.05;;;;;;;23.28;45.36;100955.00;20872731;28;20464;-68
2023/05/08 00:28:21;;;;;;;2.00;1.55;;;;;;;23.27;45.43;100923.41;20943368;28;20052;-72
2023/05/08 00:38:42;;;;;;;1.75;1.50;;;;;;;23.29;45.67;100906.38;20950292;28;20049;-71
2023/05/08 00:48:45;;;;;;;2.65;1.60;;;;;;;23.22;45.63;100883.56;20930777;28;20053;-70
2023/05/08 00:58:47;;;;;;;2.78;1.70;;;;;;;23.24;45.48;100881.34;20960966;28;20040;-70
2023/05/08 01:08:48;;;;;;;5.68;1.55;;;;;;;23.32;45.87;100878.72;20975712;28;20057;-71
2023/05/08 01:19:28;;;;;;;2.90;1.73;;;;;;;23.28;45.88;100905.56;21002472;28;20044;-71
2023/05/08 01:29:38;;;;;;;;;;;;;;;23.36;45.47;100926.38;21040982;28;20074;-72
2023/05/08 01:39:53;;;;;;;5.32;2.00;;;;;;;23.40;45.61;100918.25;20971426;28;19916;-72
2023/05/08 01:50:09;;;;;;;3.45;1.90;;;;;;;23.42;45.49;100916.00;20955939;28;20036;-72
2023/05/08 02:00:12;;;;;;;3.47;2.05;;;;;;;23.22;45.46;100869.63;20913947;28;20102;-72
2023/05/08 02:10:17;;;;;;;9.25;2.13;;;;;;;23.46;45.70;100889.13;20984159;28;20438;-71
2023/05/08 02:20:21;;;;;;;4.40;1.88;;;;;;;23.50;45.69;100885.47;20982840;28;20773;-72
2023/05/08 02:30:25;;;;;;;3.85;1.70;;;;;;;23.50;45.61;100890.19;20983163;28;20074;-71
2023/05/08 02:40:31;;;;;;;2.70;1.60;;;;;;;23.46;45.30;100878.81;20989759;28;20037;-72
2023/05/08 02:50:44;;;;;;;4.82;2.30;;;;;;;23.49;45.28;100866.19;20981770;28;20087;-73
2023/05/08 03:01:18;;;;;;;2.45;1.90;;;;;;;23.48;45.69;100858.94;21008235;28;20040;-72
2023/05/08 03:11:30;;;;;;;3.60;2.10;;;;;;;23.53;45.97;100840.16;20909771;28;20055;-73
2023/05/08 03:21:32;;;;;;;4.57;2.25;;;;;;;23.50;46.14;100792.44;20977326;28;20546;-73
2023/05/08 03:31:35;;;;;;;3.60;1.88;;;;;;;23.49;46.14;100788.00;20992979;28;20040;-72
2023/05/08 03:41:39;;;;;;;2.28;2.10;;;;;;;23.58;46.29;100803.75;20994530;28;20094;-73
2023/05/08 03:51:42;;;;;;;2.85;1.92;;;;;;;23.59;46.56;100807.38;21008756;28;20118;-72
2023/05/08 04:01:51;;;;;;;3.90;1.70;;;;;;;23.60;46.44;100811.88;21007097;28;20045;-72
2023/05/08 04:12:31;;;;;;;2.97;1.90;;;;;;;23.55;46.56;100806.34;21006964;28;20052;-73
2023/05/08 04:22:34;;;;;;;2.17;1.75;;;;;;;23.63;46.34;100811.25;20981050;28;20053;-73
2023/05/08 04:32:37;;;;;;;2.97;2.17;;;;;;;23.63;46.43;100779.69;20961485;28;20110;-72
2023/05/08 04:42:42;;;;;;;2.50;2.08;;;;;;;23.63;46.34;100777.72;20975109;28;20549;-72
2023/05/08 04:52:43;;;;;;;2.17;1.90;;;;;;;23.61;46.47;100780.00;21020430;28;20071;-72
2023/05/08 05:02:45;;;;;;;3.38;2.00;;;;;;;23.63;46.59;100741.41;20998933;28;20094;-72
2023/05/08 05:12:46;;;;;;;2.55;1.77;;;;;;;23.52;46.54;100726.78;21001072;28;20446;-73
2023/05/08 05:22:48;;;;;;;3.92;2.10;;;;;;;23.65;46.25;100750.34;21012708;28;20066;-72
2023/05/08 05:32:49;;;;;;;2.78;1.70;;;;;;;23.61;46.41;100729.72;21003952;28;20032;-73
2023/05/08 05:42:53;;;;;;;2.67;1.88;;;;;;;23.67;46.60;100711.75;20995396;28;20377;-72
2023/05/08 05:52:54;;;;;;;2.25;1.92;;;;;;;23.66;46.40;100698.09;20973534;28;20066;-72
2023/05/08 06:02:56;;;;;;;2.05;1.92;;;;;;;23.63;46.47;100665.97;21021849;28;20125;-72
2023/05/08 06:12:57;;;;;;;1.80;1.70;;;;;;;23.67;46.45;100655.06;20996609;28;20549;-72
2023/05/08 06:22:59;;;;;;;2.67;2.13;;;;;;;23.56;46.37;100643.22;20994889;28;20400;-72
2023/05/08 06:33:05;;;;;;;2.63;1.98;;;;;;;23.67;46.26;100661.47;20995230;28;20041;-72
2023/05/08 06:43:09;;;;;;;1.75;1.65;;;;;;;23.68;46.52;100660.31;21034493;28;20043;-72
2023/05/08 06:53:11;;;;;;;1.98;1.70;;;;;;;23.65;46.87;100674.94;21073392;28;20392;-72
2023/05/08 07:03:12;;;;;;;1.67;1.58;;;;;;;23.71;47.27;100693.25;20994810;28;20037;-72
2023/05/08 07:13:20;;;;;;;2.28;1.92;;;;;;;23.71;46.93;100679.28;21049791;28;20138;-72
2023/05/08 07:23:21;;;;;;;1.60;1.50;;;;;;;23.71;46.57;100695.22;20996305;28;20044;-71
2023/05/08 07:33:26;;;;;;;2.03;1.80;;;;;;;23.63;46.49;100688.31;21053371;28;20470;-71
2023/05/08 07:43:27;;;;;;;1.80;1.30;;;;;;;23.70;47.20;100691.59;21039632;28;20045;-71
2023/05/08 07:53:28;;;;;;;1.60;1.50;;;;;;;23.71;47.10;100690.47;20990147;28;20099;-72
2023/05/08 08:03:29;;;;;;;2.42;1.70;;;;;;;23.71;46.93;100710.00;20938083;28;20059;-71
2023/05/08 08:13:34;;;;;;;2.50;1.80;;;;;;;23.45;47.01;100669.66;21054772;28;20384;-72
2023/05/08 08:23:35;;;;;;;3.65;1.90;;;;;;;23.67;46.53;100728.53;21073025;28;20032;-72
2023/05/08 08:33:37;;;;;;;1.70;1.60;;;;;;;23.67;46.85;100728.53;21083567;28;20433;-73
2023/05/08 08:43:42;;;;;;;1.77;1.67;;;;;;;23.68;47.04;100724.59;21067534;28;20086;-73
2023/05/08 08:53:48;;;;;;;1.60;1.50;;;;;;;23.68;47.05;100715.38;21011148;28;20044;-71
2023/05/08 09:03:50;;;;;;;1.75;1.50;;;;;;;23.71;47.32;100690.47;21003635;28;20090;-72
2023/05/08 09:13:51;;;;;;;2.10;1.90;;;;;;;23.70;46.67;100683.22;21049338;28;20529;-72
2023/05/08 09:23:58;;;;;;;2.22;1.30;;;;;;;23.70;47.19;100686.00;21005972;28;20110;-72
2023/05/08 09:33:59;;;;;;;1.77;1.50;;;;;;;23.71;47.19;100696.03;21006389;28;20070;-73
2023/05/08 09:44:05;;;;;;;1.52;1.42;;;;;;;23.70;47.39;100694.41;21058991;28;20315;-73
2023/05/08 09:54:17;;;;;;;2.35;1.70;;;;;;;23.65;47.10;100688.91;20988032;28;20499;-73
2023/05/08 10:04:31;;;;;;;9.55;2.05;;;;;;;23.40;46.63;100648.22;21024927;28;20040;-72
2023/05/08 10:14:32;;;;;;;7.60;2.35;;;;;;;23.67;46.84;100675.44;21035511;28;20051;-72
2023/05/08 10:24:40;;;;;;;4.85;1.70;;;;;;;23.69;46.69;100670.41;21065492;28;20110;-72
2023/05/08 10:34:44;;;;;;;1.75;1.65;;;;;;;23.44;46.46;100662.41;21078634;28;20379;-70
2023/05/08 10:44:46;;;;;;;8.43;2.20;;;;;;;23.67;47.21;100711.75;21050929;28;20032;-72
2023/05/08 10:55:03;;;;;;;5.60;1.83;;;;;;;23.67;46.82;100717.34;20909416;28;20050;-73
2023/05/08 11:05:17;;;;;;;2.03;1.83;;;;;;;23.64;46.77;100750.59;20910720;28;20064;-73
2023/05/08 11:15:38;;;;;;;4.43;1.98;;;;;;;23.41;46.66;100724.44;20910075;28;20041;-73
2023/05/08 11:25:43;;;;;;;4.20;2.10;;;;;;;23.66;46.73;100785.53;20909374;28;20045;-73
2023/05/08 11:35:50;;;;;;;3.00;2.00;;;;;;;23.69;46.57;100814.84;20909304;28;20040;-73
2023/05/08 11:45:53;;;;;;;4.57;1.80;;;;;;;23.68;46.61;100813.97;20908734;28;20037;-75
2023/05/08 11:56:00;;;;;;;4.53;2.00;;;;;;;23.70;46.51;100845.25;20908664;28;20554;-75
2023/05/08 12:06:04;;;;;;;2.80;2.47;;;;;;;23.70;46.51;100883.53;20914306;28;20033;-74
2023/05/08 12:16:09;;;;;;;4.53;2.40;;;;;;;23.01;46.39;100768.59;20923551;28;20049;-74
2023/05/08 12:26:11;;;;;;;1.95;1.77;;;;;;;23.63;46.43;100883.03;20922828;28;20029;-74
2023/05/08 12:36:16;;;;;;;2.63;1.98;;;;;;;23.68;46.59;100881.03;20922057;28;20040;-72
2023/05/08 12:46:17;;;;;;;2.22;1.95;;;;;;;23.68;46.28;100878.22;20920486;28;20369;-74
2023/05/08 12:56:21;;;;;;;2.40;2.20;;;;;;;23.72;46.54;100896.06;20920390;28;20029;-75
2023/05/08 13:06:22;;;;;;;3.20;1.77;;;;;;;23.75;46.24;100903.84;20919264;28;20049;-74
2023/05/08 13:16:24;;;;;;;2.45;1.83;;;;;;;23.76;46.40;100915.84;20917495;28;20041;-74
2023/05/08 13:26:28;;;;;;;3.40;1.88;;;;;;;23.28;46.21;100832.16;20917843;28;20476;-74
2023/05/08 13:36:30;;;;;;;2.67;1.90;;;;;;;23.79;46.17;100916.09;20917351;28;20036;-74
2023/05/08 13:46:31;;;;;;;2.05;1.88;;;;;;;23.05;46.10;100762.09;20916682;28;20122;-74
2023/05/08 13:56:42;;;;;;;2.20;1.85;;;;;;;23.65;45.94;100867.69;20915280;28;20040;-74
2023/05/08 14:06:44;;;;;;;2.88;1.85;;;;;;;23.75;46.11;100880.66;20915005;28;20037;-75
2023/05/08 14:16:49;;;;;;;1.70;1.60;;;;;;;23.83;45.93;100875.25;20968885;28;20098;-74
2023/05/08 14:27:04;;;;;;;2.28;1.80;;;;;;;23.86;45.90;100882.16;20947037;28;20049;-74
2023/05/08 14:37:05;;;;;;;2.00;1.65;;;;;;;23.86;45.87;100886.94;20912748;28;20075;-74
2023/05/08 14:47:07;;;;;;;2.10;1.92;;;;;;;23.88;45.80;100909.84;20911766;28;20095;-74
2023/05/08 14:57:08;;;;;;;2.20;2.00;;;;;;;23.90;45.62;100899.16;20911719;28;20040;-74
2023/05/08 15:07:15;;;;;;;1.60;1.50;;;;;;;23.84;45.84;100890.88;20910762;28;20107;-74
2023/05/08 15:17:17;;;;;;;1.80;1.70;;;;;;;23.83;45.37;100891.19;20910127;28;20044;-74
2023/05/08 15:27:18;;;;;;;1.80;1.70;;;;;;;23.57;45.63;100868.31;20909632;28;20561;-74
2023/05/08 15:37:19;;;;;;;2.53;1.80;;;;;;;23.92;45.57;100922.91;20910220;28;20044;-74
2023/05/08 15:47:25;;;;;;;1.80;1.48;;;;;;;23.97;45.87;100913.59;20925823;28;20078;-73
2023/05/08 15:57:27;;;;;;;2.85;1.70;;;;;;;24.01;45.95;100909.09;20924522;28;20041;-74
2023/05/08 16:07:28;;;;;;;2.03;1.83;;;;;;;24.01;45.71;100923.06;20924042;28;20064;-74
2023/05/08 16:17:33;;;;;;;1.70;1.52;;;;;;;24.04;45.82;100916.84;20922491;28;20392;-74
2023/05/08 16:27:34;;;;;;;1.70;1.60;;;;;;;24.04;45.34;100906.50;20922249;28;20049;-73
2023/05/08 16:37:38;;;;;;;1.55;1.45;;;;;;;24.03;45.38;100887.22;20922177;28;20036;-74
2023/05/08 16:47:40;;;;;;;2.03;1.50;;;;;;;24.00;45.44;100894.25;20921367;28;20044;-74
2023/05/08 16:57:41;;;;;;;2.00;1.80;;;;;;;24.01;45.56;100867.16;20920067;28;20037;-74
2023/05/08 17:07:42;;;;;;;2.08;1.88;;;;;;;24.01;45.46;100850.38;20919365;28;20103;-73
2023/05/08 17:17:46;;;;;;;1.60;1.50;;;;;;;24.03;45.54;100845.31;20919253;28;20025;-73
2023/05/08 17:27:47;;;;;;;1.60;1.33;;;;;;;24.03;45.60;100836.91;20918188;28;20032;-74
2023/05/08 17:37:49;;;;;;;1.30;1.20;;;;;;;24.04;45.52;100816.22;20917491;28;20033;-74
2023/05/08 17:47:53;;;;;;;2.10;1.90;;;;;;;23.42;45.43;100692.63;20916731;28;20036;-74
2023/05/08 17:57:55;;;;;;;1.48;1.38;;;;;;;24.10;45.68;100820.59;20915599;28;20094;-73
2023/05/08 18:07:59;;;;;;;1.40;1.25;;;;;;;23.84;45.69;100767.91;20914390;28;20045;-74
2023/05/08 18:18:04;;;;;;;1.83;1.73;;;;;;;23.78;45.54;100744.00;20914155;28;20400;-74
2023/05/08 18:28:05;;;;;;;1.55;1.45;;;;;;;24.13;45.54;100808.78;20916738;28;20045;-74
2023/05/08 18:38:07;;;;;;;2.00;1.60;;;;;;;24.06;45.45;100780.41;20916418;28;20090;-73
2023/05/08 18:48:08;;;;;;;2.13;1.85;;;;;;;23.89;45.57;100768.97;20912129;28;20041;-73
2023/05/08 18:58:11;;;;;;;1.50;1.40;;;;;;;23.97;45.29;100757.91;20910293;28;20041;-74
2023/05/08 19:08:18;;;;;;;1.70;1.60;;;;;;;23.93;45.50;100756.03;20910834;28;20103;-74
2023/05/08 19:18:19;;;;;;;1.55;1.45;;;;;;;24.07;45.46;100748.53;20909335;28;20040;-74
2023/05/08 19:28:23;;;;;;;1.30;1.20;;;;;;;23.90;45.66;100732.31;20909801;28;20566;-73
2023/05/08 19:38:24;;;;;;;1.30;1.20;;;;;;;24.23;45.32;100777.03;20909646;28;20111;-73
2023/05/08 19:48:26;;;;;;;1.58;1.48;;;;;;;24.25;45.53;100778.38;20909213;28;20044;-73
2023/05/08 19:58:27;;;;;;;1.33;1.20;;;;;;;24.23;45.12;100763.88;20942003;28;20049;-74
2023/05/08 20:08:28;;;;;;;1.38;1.20;;;;;;;23.99;45.44;100707.28;21012951;28;20045;-73
2023/05/08 20:18:30;;;;;;;18.63;2.15;;;;;;;24.27;45.67;100753.72;20955845;28;20037;-70
2023/05/08 20:28:34;;;;;;;21.98;2.85;;;;;;;24.32;45.41;100761.19;20982114;28;20106;-74
2023/05/08 20:38:35;;;;;;;7.53;1.80;;;;;;;24.31;45.54;100748.34;21004064;28;20063;-74
2023/05/08 20:48:37;;;;;;;7.97;1.75;;;;;;;24.18;45.55;100740.75;21004035;28;20044;-75
2023/05/08 20:58:38;;;;;;;4.75;1.88;;;;;;;24.09;45.60;100719.09;21003280;28;20070;-76
2023/05/08 21:08:40;;;;;;;6.70;1.73;;;;;;;24.30;45.59;100763.47;21001984;28;20102;-73
2023/05/08 21:18:41;;;;;;;5.30;1.73;;;;;;;24.30;45.81;100769.91;21001625;28;20098;-73
2023/05/08 21:28:45;;;;;;;2.72;1.55;;;;;;;24.12;45.63;100734.44;21000596;28;20103;-74
2023/05/08 21:38:50;;;;;;;5.22;1.42;;;;;;;24.21;45.68;100760.56;20998272;28;20471;-73
2023/05/08 21:48:55;;;;;;;2.03;1.52;;;;;;;24.28;45.59;100777.78;20999106;28;20037;-74
2023/05/08 21:58:56;;;;;;;2.38;1.35;;;;;;;24.27;45.82;100792.88;20996428;28;20040;-76
2023/05/08 22:08:58;;;;;;;1.88;1.50;;;;;;;24.30;45.80;100781.09;20997072;28;20087;-76
2023/05/08 22:18:59;;;;;;;2.60;1.02;;;;;;;24.24;46.08;100757.16;20996859;28;20040;-74
2023/05/08 22:29:00;;;;;;;1.08;0.98;;;;;;;24.28;46.00;100755.41;20996008;28;20040;-74
2023/05/08 22:39:10;;;;;;;2.00;1.10;;;;;;;24.19;45.86;100751.66;20989608;28;20099;-75
2023/05/08 22:49:12;;;;;;;1.77;1.13;;;;;;;24.30;46.11;100760.69;20994371;28;20074;-73
2023/05/08 22:59:13;;;;;;;2.30;1.10;;;;;;;24.32;45.93;100770.41;20987618;28;20424;-75
2023/05/08 23:09:15;;;;;;;1.70;1.05;;;;;;;24.32;45.73;100763.97;20992716;28;20109;-74
2023/05/08 23:19:16;;;;;;;1.15;0.90;;;;;;;24.32;45.74;100769.56;20993093;28;20033;-74
2023/05/08 23:29:18;;;;;;;2.42;1.20;;;;;;;24.33;45.85;100786.06;20990419;28;20036;-74
2023/05/08 23:39:19;;;;;;;1.85;1.30;;;;;;;24.21;46.07;100799.69;20992534;28;20032;-74
2023/05/08 23:49:20;;;;;;;3.50;1.20;;;;;;;24.29;45.93;100806.56;20991939;28;20491;-75
2023/05/08 23:59:22;;;;;;;1.23;1.13;;;;;;;24.26;46.29;100818.34;20949534;28;20116;-75
